Time;durP1;ratioP1;P1;durP2;ratioP2;P2;SDS_P1;SDS_P2;PMS_P1;PMS_P2;Temp;Humidity;BMP_temperature;BMP_pressure;BME280_temperature;BME280_humidity;BME280_pressure;Samples;Min_cycle;Max_cycle;Signal;HPM_P1;HPM_P2
2021/03/27 00:01:57;;;;;;;49.57;31.00;;;11.20;99.90;;;;;;4978803;28;20807;-68
2021/03/27 00:04:40;;;;;;;58.53;33.43;;;11.20;99.90;;;;;;4979721;28;20796;-68
2021/03/27 00:07:16;;;;;;;55.97;32.60;;;11.20;99.90;;;;;;4979505;28;20462;-69
2021/03/27 00:09:47;;;;;;;58.33;32.30;;;11.20;99.90;;;;;;4979053;28;20454;-68
2021/03/27 00:12:28;;;;;;;57.37;33.50;;;11.20;99.90;;;;;;4979223;28;20827;-68
2021/03/27 00:15:03;;;;;;;51.13;32.70;;;11.20;99.90;;;;;;4978318;28;20834;-68
2021/03/27 00:17:44;;;;;;;45.50;31.70;;;11.20;99.90;;;;;;4979390;28;20855;-68
2021/03/27 00:20:17;;;;;;;53.93;31.73;;;11.20;99.90;;;;;;4978315;28;20892;-68
2021/03/27 00:22:50;;;;;;;54.73;33.77;;;11.10;99.90;;;;;;4978388;28;20466;-71
2021/03/27 00:25:23;;;;;;;48.87;30.60;;;11.10;99.90;;;;;;4978882;28;20812;-69
2021/03/27 00:28:01;;;;;;;63.20;33.13;;;11.10;99.90;;;;;;4978903;28;20796;-68
2021/03/27 00:30:37;;;;;;;50.13;32.90;;;11.00;99.90;;;;;;4979078;28;20770;-69
2021/03/27 00:33:08;;;;;;;50.13;31.13;;;11.00;99.90;;;;;;4978377;28;20483;-68
2021/03/27 00:35:41;;;;;;;55.07;29.80;;;11.00;99.90;;;;;;4978585;28;20477;-69
2021/03/27 00:38:15;;;;;;;50.20;29.63;;;11.00;99.90;;;;;;4978974;28;20443;-69
2021/03/27 00:40:46;;;;;;;50.20;32.80;;;11.00;99.90;;;;;;4978621;28;20779;-68
2021/03/27 00:43:19;;;;;;;54.20;32.20;;;11.00;99.90;;;;;;4978493;28;20783;-69
2021/03/27 00:45:51;;;;;;;48.83;29.67;;;11.00;99.90;;;;;;4979158;28;20841;-67
2021/03/27 00:48:28;;;;;;;48.00;30.20;;;11.00;99.90;;;;;;4978488;28;20789;-68
2021/03/27 00:50:58;;;;;;;46.90;28.83;;;10.90;99.90;;;;;;4978416;28;20936;-69
2021/03/27 00:53:32;;;;;;;61.90;35.20;;;10.90;99.90;;;;;;4978705;28;20884;-68
2021/03/27 00:56:10;;;;;;;46.30;28.73;;;11.00;99.90;;;;;;4978852;28;20458;-68
2021/03/27 00:58:42;;;;;;;51.73;30.33;;;11.00;99.90;;;;;;4978153;28;21020;-68
2021/03/27 01:01:13;;;;;;;49.50;30.33;;;11.00;99.90;;;;;;4978714;28;20795;-68
2021/03/27 01:03:46;;;;;;;48.67;30.33;;;11.10;99.90;;;;;;4979439;28;20749;-68
2021/03/27 01:06:18;;;;;;;45.37;27.80;;;11.10;99.90;;;;;;4982327;28;20874;-67
2021/03/27 01:08:49;;;;;;;47.60;29.87;;;11.10;99.90;;;;;;4982702;28;20458;-68
2021/03/27 01:11:22;;;;;;;49.93;30.13;;;11.10;99.90;;;;;;4982744;28;20490;-68
2021/03/27 01:13:54;;;;;;;42.87;27.13;;;11.10;99.90;;;;;;4982370;28;20781;-68
2021/03/27 01:16:27;;;;;;;49.43;28.77;;;11.10;99.90;;;;;;4982027;28;20836;-68
2021/03/27 01:19:01;;;;;;;46.00;28.70;;;11.20;99.90;;;;;;4982012;28;20670;-68
2021/03/27 01:21:34;;;;;;;47.67;29.93;;;11.20;99.90;;;;;;4981756;28;20943;-68
2021/03/27 01:24:04;;;;;;;41.20;26.20;;;11.10;99.90;;;;;;4982056;28;20658;-67
2021/03/27 01:26:40;;;;;;;44.30;27.97;;;11.10;99.90;;;;;;4981885;28;20451;-68
2021/03/27 01:29:11;;;;;;;40.83;26.30;;;11.00;99.90;;;;;;4983460;28;20465;-68
2021/03/27 01:31:45;;;;;;;47.93;27.97;;;11.00;99.90;;;;;;4973103;28;20659;-68
2021/03/27 01:34:24;;;;;;;50.17;27.27;;;11.00;99.90;;;;;;4962424;29;20812;-69
2021/03/27 01:37:06;;;;;;;43.03;27.30;;;11.00;99.90;;;;;;4972728;28;20780;-67
2021/03/27 01:39:43;;;;;;;48.10;26.90;;;11.00;99.90;;;;;;4982178;28;20750;-68
2021/03/27 01:45:13;;;;;;;44.27;28.37;;;11.00;99.90;;;;;;5410671;23;20883;-68
2021/03/27 02:00:46;;;;;;;39.50;28.03;;;10.70;99.90;;;;;;5609650;23;20845;-68
2021/03/27 02:03:19;;;;;;;41.27;27.00;;;10.70;99.90;;;;;;4961761;28;20916;-68
2021/03/27 02:05:54;;;;;;;41.93;26.17;;;10.70;99.90;;;;;;4968022;28;20780;-67
2021/03/27 02:08:34;;;;;;;46.20;26.20;;;10.60;99.90;;;;;;4970954;28;20445;-68
2021/03/27 02:11:07;;;;;;;42.57;24.43;;;10.50;99.90;;;;;;4969051;28;20502;-67
2021/03/27 02:13:43;;;;;;;38.50;25.03;;;10.50;99.90;;;;;;4972080;28;20770;-69
2021/03/27 02:16:23;;;;;;;42.03;25.10;;;10.40;99.90;;;;;;4968429;28;20504;-69
2021/03/27 02:19:03;;;;;;;39.53;23.83;;;10.40;99.90;;;;;;4965864;28;20453;-68
2021/03/27 02:22:07;;;;;;;41.30;25.30;;;10.40;99.90;;;;;;4967014;28;20531;-68
2021/03/27 02:25:16;;;;;;;36.03;22.03;;;10.40;99.90;;;;;;4962796;28;20781;-68
2021/03/27 02:27:51;;;;;;;40.03;25.03;;;10.40;99.90;;;;;;4949413;28;20463;-68
2021/03/27 02:30:27;;;;;;;40.53;25.10;;;10.40;99.90;;;;;;4967813;28;20836;-68
2021/03/27 02:33:14;;;;;;;38.63;23.20;;;10.40;99.90;;;;;;4967321;28;20935;-68
2021/03/27 02:36:08;;;;;;;38.67;24.17;;;10.40;99.90;;;;;;4974527;28;20780;-67
2021/03/27 02:38:52;;;;;;;38.40;23.40;;;10.40;99.90;;;;;;4967708;28;20840;-68
2021/03/27 02:41:33;;;;;;;33.07;23.47;;;10.40;99.90;;;;;;4969253;28;20805;-68
2021/03/27 02:44:06;;;;;;;34.33;21.17;;;10.40;99.90;;;;;;4968002;28;20604;-68
2021/03/27 02:46:40;;;;;;;38.70;23.67;;;10.40;99.90;;;;;;4967583;28;20838;-70
2021/03/27 02:49:30;;;;;;;37.77;22.40;;;10.30;99.90;;;;;;4967321;28;20462;-68
2021/03/27 02:52:09;;;;;;;36.13;22.60;;;10.30;99.90;;;;;;4969102;28;20788;-69
2021/03/27 02:54:53;;;;;;;46.93;25.63;;;10.20;99.90;;;;;;4963142;28;20807;-68
2021/03/27 02:57:29;;;;;;;36.80;22.30;;;10.20;99.90;;;;;;4970590;28;20765;-69
2021/03/27 04:35:18;;;;;;;32.43;23.10;;;10.40;99.90;;;;;;5007640;23;20278;-68
2021/03/27 04:37:53;;;;;;;39.03;23.30;;;10.30;99.90;;;;;;4973328;28;20759;-68
2021/03/27 04:50:50;;;;;;;36.13;20.63;;;10.20;99.90;;;;;;5854409;23;20483;-67
2021/03/27 04:53:25;;;;;;;36.90;22.70;;;10.20;99.90;;;;;;4973240;28;20797;-70
2021/03/27 04:56:03;;;;;;;34.73;20.40;;;10.20;99.90;;;;;;4972046;28;20894;-68
2021/03/27 04:58:39;;;;;;;27.80;18.30;;;10.20;99.90;;;;;;4973116;28;20455;-70
2021/03/27 05:01:19;;;;;;;36.20;20.83;;;10.10;99.90;;;;;;4974506;28;20449;-70
2021/03/27 05:03:57;;;;;;;30.93;18.37;;;10.20;99.90;;;;;;4971891;28;20463;-69
2021/03/27 05:06:33;;;;;;;26.00;18.00;;;10.20;99.90;;;;;;4973883;28;20655;-68
2021/03/27 05:09:13;;;;;;;38.53;20.60;;;10.10;99.90;;;;;;4979054;28;20746;-67
2021/03/27 05:11:49;;;;;;;28.10;19.10;;;10.20;99.90;;;;;;4989066;28;20502;-67
2021/03/27 05:14:33;;;;;;;26.30;17.57;;;10.10;99.90;;;;;;4991405;28;20473;-67
2021/03/27 05:17:14;;;;;;;25.43;16.37;;;10.20;99.90;;;;;;4979890;28;20446;-67
2021/03/27 05:19:47;;;;;;;30.83;19.40;;;10.20;99.90;;;;;;4978188;28;20773;-68
2021/03/27 05:22:33;;;;;;;29.10;19.70;;;10.20;99.90;;;;;;4974723;28;20768;-68
2021/03/27 05:25:15;;;;;;;31.17;16.63;;;10.30;99.90;;;;;;4977571;28;20806;-68
2021/03/27 05:27:51;;;;;;;29.33;19.17;;;10.40;99.90;;;;;;4979239;28;20804;-68
2021/03/27 05:30:26;;;;;;;27.27;17.50;;;10.40;99.90;;;;;;4970837;28;20486;-68
2021/03/27 05:33:23;;;;;;;25.93;18.20;;;10.40;99.90;;;;;;4976432;28;20561;-69
2021/03/27 05:35:59;;;;;;;30.70;17.00;;;10.50;99.90;;;;;;4944564;28;21027;-68
2021/03/27 05:38:39;;;;;;;30.20;17.10;;;10.50;99.90;;;;;;4971064;28;20782;-67
2021/03/27 05:41:41;;;;;;;26.10;17.90;;;10.50;99.90;;;;;;4984936;28;21122;-69
2021/03/27 05:45:14;;;;;;;31.40;18.70;;;10.70;99.90;;;;;;4985500;28;20851;-67
2021/03/27 05:48:20;;;;;;;22.57;16.30;;;10.70;99.90;;;;;;4981879;28;20637;-68
2021/03/27 05:51:32;;;;;;;23.50;15.93;;;10.80;99.90;;;;;;4986430;28;20845;-67
2021/03/27 05:54:19;;;;;;;23.37;16.00;;;10.90;99.90;;;;;;4991665;28;20540;-69
2021/03/27 05:57:20;;;;;;;28.07;17.60;;;10.90;99.90;;;;;;4985905;28;20449;-68
2021/03/27 06:00:21;;;;;;;27.07;16.30;;;11.00;99.90;;;;;;4989839;28;20446;-69
2021/03/27 06:03:32;;;;;;;21.97;15.17;;;11.10;99.90;;;;;;4984737;28;20454;-69
2021/03/27 06:06:23;;;;;;;28.17;15.07;;;11.10;99.90;;;;;;4991686;28;20448;-68
2021/03/27 06:09:09;;;;;;;25.23;17.80;;;11.20;99.90;;;;;;4976683;28;20798;-67
2021/03/27 06:11:45;;;;;;;22.87;13.87;;;11.20;99.90;;;;;;4987866;28;20450;-69
2021/03/27 06:14:40;;;;;;;29.53;16.90;;;11.30;99.90;;;;;;4989880;28;20839;-69
2021/03/27 06:17:46;;;;;;;22.23;15.10;;;11.30;99.90;;;;;;4990849;28;20830;-68
2021/03/27 06:20:41;;;;;;;23.07;14.33;;;11.40;99.90;;;;;;4965185;28;20541;-69
2021/03/27 06:23:23;;;;;;;20.50;14.43;;;11.40;99.90;;;;;;4997728;28;20907;-68
2021/03/27 06:26:28;;;;;;;21.40;15.50;;;11.40;99.90;;;;;;4995161;28;20463;-67
2021/03/27 06:29:35;;;;;;;21.70;14.60;;;11.30;99.90;;;;;;4984553;28;20815;-68
2021/03/27 06:32:39;;;;;;;18.50;12.33;;;11.30;99.90;;;;;;4962889;28;20808;-62
2021/03/27 06:35:23;;;;;;;33.77;16.10;;;11.60;99.90;;;;;;4975979;28;20859;-66
2021/03/27 06:38:23;;;;;;;20.17;14.60;;;12.00;99.90;;;;;;4979813;28;20463;-66
2021/03/27 06:41:07;;;;;;;19.03;13.73;;;11.70;99.90;;;;;;4938190;29;20765;-67
2021/03/27 06:44:00;;;;;;;18.50;13.50;;;11.60;99.90;;;;;;4962097;29;20459;-66
2021/03/27 06:46:54;;;;;;;17.73;13.00;;;11.50;99.90;;;;;;4960434;29;20913;-67
2021/03/27 06:49:43;;;;;;;18.03;12.87;;;11.50;99.90;;;;;;4962828;28;20768;-67
2021/03/27 06:52:37;;;;;;;25.53;16.13;;;11.60;99.90;;;;;;4979469;28;20823;-67
2021/03/27 06:55:43;;;;;;;24.53;14.20;;;11.60;99.90;;;;;;4969552;28;20494;-68
2021/03/27 06:58:58;;;;;;;18.10;12.53;;;11.70;99.90;;;;;;4977949;28;20763;-67
2021/03/27 07:02:12;;;;;;;19.67;12.20;;;11.70;99.90;;;;;;4987628;28;20825;-67
2021/03/27 07:05:21;;;;;;;16.97;13.07;;;11.70;99.90;;;;;;4982463;28;20940;-66
2021/03/27 07:08:07;;;;;;;16.50;12.20;;;11.90;99.90;;;;;;4943637;28;20776;-67
2021/03/27 07:11:05;;;;;;;14.10;11.67;;;12.10;99.90;;;;;;4989872;28;20493;-67
2021/03/27 07:14:05;;;;;;;19.83;13.20;;;12.20;99.90;;;;;;4989941;28;20479;-68
2021/03/27 07:16:38;;;;;;;21.13;12.43;;;12.30;99.90;;;;;;4981831;28;20788;-67
2021/03/27 07:19:46;;;;;;;20.00;13.33;;;12.20;99.90;;;;;;4978922;28;20877;-67
2021/03/27 07:22:44;;;;;;;18.70;12.50;;;12.10;99.90;;;;;;4978767;28;20814;-66
2021/03/27 07:25:38;;;;;;;17.13;12.63;;;11.90;99.90;;;;;;4978784;28;20780;-46
2021/03/27 07:28:44;;;;;;;29.27;12.77;;;11.70;99.90;;;;;;4981262;28;20781;-48
2021/03/27 07:31:39;;;;;;;18.80;12.50;;;11.50;99.90;;;;;;4989046;28;20449;-50
2021/03/27 07:34:39;;;;;;;21.53;13.10;;;11.20;99.90;;;;;;4993684;28;20465;-46
2021/03/27 07:37:44;;;;;;;23.20;13.10;;;11.00;99.90;;;;;;5003933;28;20898;-44
2021/03/27 07:40:41;;;;;;;17.07;12.60;;;10.90;99.90;;;;;;4985604;28;20813;-45
2021/03/27 07:43:34;;;;;;;18.30;11.20;;;10.70;99.90;;;;;;4975965;28;20769;-47
2021/03/27 07:46:40;;;;;;;13.67;10.10;;;10.60;99.90;;;;;;4963616;28;20595;-45
2021/03/27 07:49:40;;;;;;;16.37;10.70;;;10.50;99.90;;;;;;4952419;28;20815;-44
2021/03/27 07:52:24;;;;;;;16.23;10.60;;;10.50;99.90;;;;;;4980795;28;20557;-48
2021/03/27 07:55:29;;;;;;;14.77;11.27;;;10.60;99.90;;;;;;4980415;28;20833;-48
2021/03/27 07:58:18;;;;;;;21.80;11.50;;;10.70;99.90;;;;;;4981247;28;20477;-47
2021/03/27 08:01:08;;;;;;;12.90;9.07;;;10.70;99.90;;;;;;4999347;28;20991;-45
2021/03/27 08:03:58;;;;;;;16.67;10.80;;;10.60;99.90;;;;;;4950209;28;20787;-48
2021/03/27 08:06:51;;;;;;;16.80;11.67;;;10.50;99.90;;;;;;4978159;28;20878;-48
2021/03/27 08:09:59;;;;;;;12.47;7.90;;;10.40;99.90;;;;;;4979448;28;20950;-50
2021/03/27 08:13:09;;;;;;;18.57;9.20;;;10.20;99.90;;;;;;4979052;28;20773;-47
2021/03/27 08:16:16;;;;;;;5.70;4.20;;;10.00;99.90;;;;;;4978607;28;20829;-50
2021/03/27 08:19:28;;;;;;;7.40;3.07;;;9.60;99.90;;;;;;4979681;28;20450;-45
2021/03/27 08:22:11;;;;;;;2.40;1.60;;;9.10;99.90;;;;;;4980277;28;20792;-46
2021/03/27 08:24:49;;;;;;;2.60;2.40;;;8.90;99.90;;;;;;4979456;28;20521;-46
2021/03/27 08:27:49;;;;;;;9.93;2.20;;;8.70;99.90;;;;;;4986321;28;20431;-45
2021/03/27 08:30:54;;;;;;;1.20;0.80;;;8.60;99.90;;;;;;4998999;28;20419;-44
2021/03/27 08:34:01;;;;;;;1.53;1.00;;;8.30;99.90;;;;;;4998448;28;20443;-49
2021/03/27 08:36:56;;;;;;;1.30;0.73;;;8.20;99.90;;;;;;4998841;28;20535;-50
2021/03/27 08:39:58;;;;;;;1.00;0.70;;;8.10;99.90;;;;;;4997961;28;20566;-51
2021/03/27 08:43:01;;;;;;;1.00;0.70;;;8.00;99.90;;;;;;4998555;28;20458;-52
2021/03/27 08:45:57;;;;;;;1.30;0.70;;;7.90;99.90;;;;;;4995392;28;20426;-48
2021/03/27 08:48:45;;;;;;;1.33;0.70;;;7.90;99.90;;;;;;4964261;28;20451;-46
2021/03/27 08:51:22;;;;;;;1.80;0.70;;;7.80;99.90;;;;;;4997784;28;20467;-50
2021/03/27 08:54:27;;;;;;;1.30;0.87;;;7.70;99.90;;;;;;4997642;28;20475;-48
2021/03/27 08:57:27;;;;;;;1.00;0.83;;;7.50;99.90;;;;;;4964161;28;20947;-51
2021/03/27 09:00:34;;;;;;;1.57;0.90;;;7.50;99.90;;;;;;4998745;28;20450;-52
2021/03/27 09:03:50;;;;;;;2.93;1.23;;;7.40;99.90;;;;;;4993316;28;20539;-49
2021/03/27 09:06:36;;;;;;;2.90;1.80;;;7.30;99.90;;;;;;4997973;28;20526;-49
2021/03/27 09:09:22;;;;;;;1.37;1.03;;;7.30;99.90;;;;;;4998535;28;20492;-51
2021/03/27 09:12:19;;;;;;;1.10;0.93;;;7.30;99.90;;;;;;4998205;28;20427;-52
2021/03/27 09:15:20;;;;;;;3.37;2.03;;;7.30;99.90;;;;;;4978683;29;20468;-48
2021/03/27 09:18:29;;;;;;;1.53;1.20;;;7.30;99.90;;;;;;4978613;29;20455;-48
2021/03/27 09:21:25;;;;;;;2.00;1.23;;;7.30;99.90;;;;;;4991470;28;20462;-51
2021/03/27 09:24:00;;;;;;;2.97;1.97;;;7.30;99.90;;;;;;4997907;28;20518;-51
2021/03/27 09:27:14;;;;;;;1.80;1.13;;;7.30;99.90;;;;;;5001691;28;20454;-49
2021/03/27 09:30:03;;;;;;;3.33;1.30;;;7.20;99.90;;;;;;5001708;28;20844;-47
2021/03/27 09:32:47;;;;;;;2.20;1.97;;;7.30;99.90;;;;;;5002014;28;20787;-47
2021/03/27 09:35:44;;;;;;;2.50;1.07;;;7.30;99.90;;;;;;5001999;28;20543;-48
2021/03/27 09:38:32;;;;;;;2.00;1.33;;;7.40;99.90;;;;;;5001487;28;20508;-45
2021/03/27 09:41:31;;;;;;;2.63;1.37;;;7.40;99.90;;;;;;5001937;28;20471;-49
2021/03/27 09:44:29;;;;;;;1.77;1.43;;;7.50;99.90;;;;;;4996839;28;20433;-45
2021/03/27 09:47:17;;;;;;;2.00;1.57;;;7.50;99.90;;;;;;4974405;28;20465;-45
2021/03/27 09:49:59;;;;;;;1.73;1.50;;;7.50;99.90;;;;;;5002074;28;20481;-48
2021/03/27 09:52:40;;;;;;;1.87;1.27;;;7.70;99.90;;;;;;5000996;28;20502;-51
2021/03/27 09:55:42;;;;;;;4.37;1.87;;;8.00;99.90;;;;;;4981711;29;20984;-47
2021/03/27 09:58:23;;;;;;;2.17;1.20;;;8.20;99.90;;;;;;4982006;29;20439;-50
2021/03/27 10:01:05;;;;;;;2.27;1.63;;;8.40;99.90;;;;;;4981841;28;20431;-46
2021/03/27 10:03:46;;;;;;;2.87;1.40;;;8.40;99.90;;;;;;4995255;28;20443;-50
2021/03/27 10:06:50;;;;;;;1.93;1.57;;;8.40;99.90;;;;;;5001375;28;20474;-46
2021/03/27 10:09:50;;;;;;;2.93;1.77;;;8.30;99.90;;;;;;5001251;28;20459;-50
2021/03/27 10:12:23;;;;;;;2.40;1.80;;;8.20;99.90;;;;;;5000921;28;20481;-49
2021/03/27 10:14:56;;;;;;;2.60;1.80;;;8.20;99.90;;;;;;4985900;28;20579;-47
2021/03/27 10:17:32;;;;;;;3.33;1.93;;;8.10;99.90;;;;;;4981517;28;20448;-49
2021/03/27 10:20:16;;;;;;;6.40;2.23;;;8.20;99.90;;;;;;4993110;28;20423;-48
2021/03/27 10:22:50;;;;;;;2.50;2.30;;;8.30;99.90;;;;;;5001176;28;20883;-47
2021/03/27 10:25:27;;;;;;;2.90;2.17;;;8.30;99.90;;;;;;5006068;28;20522;-50
2021/03/27 10:28:14;;;;;;;3.50;2.43;;;8.40;99.90;;;;;;5020161;28;20525;-46
2021/03/27 10:30:56;;;;;;;3.53;2.53;;;8.40;99.90;;;;;;5017902;28;20907;-51
2021/03/27 10:33:38;;;;;;;4.90;3.10;;;8.50;99.90;;;;;;5000688;28;20447;-53
2021/03/27 10:36:33;;;;;;;3.10;2.57;;;8.60;99.90;;;;;;5003092;28;20477;-46
2021/03/27 10:39:32;;;;;;;4.73;3.07;;;8.70;99.90;;;;;;5004651;28;20460;-47
2021/03/27 10:42:35;;;;;;;4.67;3.43;;;9.30;99.90;;;;;;4993291;28;20447;-48
2021/03/27 10:45:25;;;;;;;5.67;4.77;;;10.30;99.90;;;;;;4997205;28;20457;-51
2021/03/27 10:48:31;;;;;;;3.57;2.90;;;11.10;99.90;;;;;;4995154;28;20450;-46
2021/03/27 10:54:27;;;;;;;4.63;2.53;;;12.80;99.90;;;;;;5817546;23;20476;-48
2021/03/27 10:57:08;;;;;;;5.70;3.13;;;12.40;99.90;;;;;;4980465;29;20499;-52
2021/03/27 10:59:44;;;;;;;3.17;2.43;;;11.90;99.90;;;;;;4980370;29;20511;-47
2021/03/27 11:02:48;;;;;;;7.87;3.17;;;11.10;99.90;;;;;;4981071;28;20518;-44
2021/03/27 11:05:45;;;;;;;5.73;2.67;;;10.60;99.90;;;;;;4981410;28;20455;-45
2021/03/27 11:08:45;;;;;;;5.43;2.80;;;10.10;99.90;;;;;;4980955;29;20511;-50
2021/03/27 11:11:46;;;;;;;3.30;2.20;;;9.70;99.90;;;;;;4980535;28;20455;-49
2021/03/27 11:14:56;;;;;;;3.73;2.13;;;9.20;99.90;;;;;;4980519;29;20531;-48
2021/03/27 11:17:53;;;;;;;6.50;2.90;;;9.20;99.90;;;;;;4981062;28;20440;-47
2021/03/27 11:20:49;;;;;;;2.57;1.90;;;9.50;99.90;;;;;;4971324;29;20446;-52
2021/03/27 11:24:05;;;;;;;3.20;2.60;;;9.70;99.90;;;;;;4978450;29;20523;-47
2021/03/27 11:27:06;;;;;;;4.23;2.57;;;9.90;99.90;;;;;;4977947;29;21008;-49
2021/03/27 11:29:43;;;;;;;9.90;2.87;;;10.20;99.90;;;;;;4980439;29;20520;-50
2021/03/27 11:32:18;;;;;;;3.13;2.10;;;10.60;99.90;;;;;;4980133;29;20412;-53
2021/03/27 11:34:55;;;;;;;4.77;2.37;;;10.80;99.90;;;;;;4980029;29;20534;-50
2021/03/27 11:37:43;;;;;;;4.00;2.70;;;10.80;99.90;;;;;;4979926;29;20770;-52
2021/03/27 11:40:36;;;;;;;4.07;2.57;;;10.70;99.90;;;;;;4980107;29;20471;-49
2021/03/27 11:43:32;;;;;;;3.97;2.77;;;10.70;99.90;;;;;;4980211;29;20484;-48
2021/03/27 11:46:07;;;;;;;4.20;2.27;;;10.80;99.90;;;;;;4979745;29;20450;-45
2021/03/27 11:48:48;;;;;;;4.40;3.07;;;10.70;99.90;;;;;;4979768;28;20523;-48
2021/03/27 11:51:24;;;;;;;5.40;2.80;;;10.60;99.90;;;;;;4979712;29;20516;-51
2021/03/27 11:54:06;;;;;;;4.07;2.80;;;10.60;99.90;;;;;;4979440;29;21024;-49
2021/03/27 11:56:56;;;;;;;3.77;2.73;;;10.80;99.90;;;;;;4979643;29;20456;-48
2021/03/27 12:02:39;;;;;;;5.97;3.03;;;11.40;99.90;;;;;;4979623;29;20419;-47
2021/03/27 12:05:15;;;;;;;7.30;2.97;;;11.50;99.90;;;;;;4979523;29;20842;-50
2021/03/27 12:07:56;;;;;;;4.67;3.10;;;11.50;99.90;;;;;;4979907;28;20483;-51
2021/03/27 12:10:41;;;;;;;5.90;3.83;;;11.40;99.90;;;;;;4979475;29;20976;-51
2021/03/27 12:13:19;;;;;;;4.07;2.97;;;11.50;99.90;;;;;;4979361;29;20448;-51
2021/03/27 12:15:55;;;;;;;3.33;2.70;;;11.50;99.90;;;;;;4978709;29;20497;-49
2021/03/27 12:19:10;;;;;;;4.60;2.90;;;11.60;99.90;;;;;;4979061;29;20491;-52
2021/03/27 12:21:50;;;;;;;4.70;2.40;;;11.70;99.90;;;;;;4978964;29;20475;-49
2021/03/27 12:24:33;;;;;;;5.90;3.47;;;11.80;99.90;;;;;;4978748;29;20451;-44
2021/03/27 12:27:06;;;;;;;5.20;3.10;;;11.90;99.90;;;;;;4979248;29;20452;-51
2021/03/27 12:29:43;;;;;;;4.13;2.20;;;11.90;99.90;;;;;;4979345;29;20989;-48
2021/03/27 12:32:35;;;;;;;5.30;3.00;;;11.90;99.20;;;;;;4980049;29;20483;-44
2021/03/27 12:35:14;;;;;;;9.37;3.53;;;12.10;99.10;;;;;;4979334;29;20472;-49
2021/03/27 12:37:54;;;;;;;4.83;2.70;;;12.10;97.20;;;;;;4979298;28;20424;-53
2021/03/27 12:40:32;;;;;;;5.87;2.93;;;12.30;98.40;;;;;;4978896;29;20916;-47
2021/03/27 12:43:08;;;;;;;5.33;3.03;;;12.20;94.60;;;;;;4979202;29;20930;-50
2021/03/27 12:45:38;;;;;;;3.30;2.50;;;12.20;96.20;;;;;;4979223;29;20512;-51
2021/03/27 12:48:26;;;;;;;5.70;2.60;;;12.30;96.80;;;;;;4978773;28;20527;-50
2021/03/27 12:51:17;;;;;;;3.90;2.77;;;12.60;95.60;;;;;;4978732;29;20928;-48
2021/03/27 12:54:24;;;;;;;7.70;3.17;;;12.80;95.50;;;;;;4979261;29;20984;-50
2021/03/27 12:57:34;;;;;;;3.97;2.20;;;12.80;94.00;;;;;;4978892;28;20471;-51
2021/03/27 13:00:38;;;;;;;4.73;2.47;;;12.70;93.30;;;;;;4977582;29;21052;-51
2021/03/27 13:03:27;;;;;;;6.20;2.07;;;12.40;92.30;;;;;;4978926;29;20531;-53
2021/03/27 13:06:22;;;;;;;4.80;1.87;;;11.60;99.90;;;;;;4978345;29;20451;-53
2021/03/27 13:09:18;;;;;;;1.83;1.20;;;10.50;99.90;;;;;;4978229;29;20424;-51
2021/03/27 13:11:50;;;;;;;2.50;1.13;;;9.40;99.90;;;;;;4978403;29;20455;-48
2021/03/27 13:14:51;;;;;;;5.10;1.97;;;8.70;99.90;;;;;;4978203;29;20551;-51
2021/03/27 13:17:26;;;;;;;2.87;1.67;;;8.20;99.90;;;;;;4978026;29;20507;-48
2021/03/27 13:19:59;;;;;;;2.50;1.40;;;8.10;99.90;;;;;;4978527;29;20486;-51
2021/03/27 13:22:36;;;;;;;3.10;2.00;;;8.10;99.90;;;;;;4978445;29;20527;-50
2021/03/27 13:25:22;;;;;;;4.10;1.47;;;8.20;99.90;;;;;;4978575;29;20454;-51
2021/03/27 13:27:57;;;;;;;3.00;1.63;;;8.20;99.90;;;;;;4978451;29;20434;-44
2021/03/27 13:30:30;;;;;;;5.70;1.90;;;8.30;99.90;;;;;;4977852;29;20451;-44
2021/03/27 13:33:13;;;;;;;2.63;1.83;;;8.50;99.90;;;;;;4977762;29;20435;-48
2021/03/27 13:36:09;;;;;;;2.87;1.53;;;8.70;99.90;;;;;;4977821;29;20543;-45
2021/03/27 13:38:47;;;;;;;1.50;1.30;;;8.80;99.90;;;;;;4977210;29;20471;-45
2021/03/27 13:41:48;;;;;;;1.93;1.73;;;8.80;99.90;;;;;;4978130;29;20450;-45
2021/03/27 13:44:28;;;;;;;3.60;1.73;;;8.70;99.90;;;;;;4978040;29;20465;-48
2021/03/27 13:47:08;;;;;;;3.10;1.40;;;8.70;99.90;;;;;;4979075;29;20427;-45
2021/03/27 13:49:48;;;;;;;2.37;1.70;;;8.50;99.90;;;;;;4978604;29;20464;-46
2021/03/27 13:52:25;;;;;;;3.60;1.60;;;8.50;99.90;;;;;;4978531;29;20444;-48
2021/03/27 13:55:01;;;;;;;2.97;1.80;;;8.40;99.90;;;;;;4977643;29;20592;-48
2021/03/27 13:57:36;;;;;;;2.33;1.53;;;8.50;99.90;;;;;;4978344;29;20435;-48
2021/03/27 14:00:15;;;;;;;2.73;1.43;;;8.40;99.90;;;;;;4978925;28;20510;-49
2021/03/27 14:02:57;;;;;;;4.53;1.30;;;8.40;99.90;;;;;;4978577;29;20443;-49
2021/03/27 14:05:49;;;;;;;1.87;1.50;;;8.30;99.90;;;;;;4978685;29;20435;-52
2021/03/27 14:08:37;;;;;;;1.57;0.90;;;8.40;99.90;;;;;;4979036;29;20442;-44
2021/03/27 14:11:14;;;;;;;1.40;0.93;;;8.30;99.90;;;;;;4980516;28;20440;-47
2021/03/27 14:13:46;;;;;;;2.07;1.00;;;8.40;99.90;;;;;;4982118;29;20432;-47
2021/03/27 14:16:29;;;;;;;3.40;1.70;;;8.30;99.90;;;;;;4981829;29;20499;-49
2021/03/27 14:19:09;;;;;;;2.53;1.40;;;8.30;99.90;;;;;;4981405;29;20500;-48
2021/03/27 14:21:51;;;;;;;2.63;1.30;;;8.20;99.90;;;;;;4981306;29;20531;-51
2021/03/27 14:24:41;;;;;;;2.77;1.20;;;8.10;99.90;;;;;;4981581;29;20503;-45
2021/03/27 14:27:22;;;;;;;2.63;1.20;;;8.20;99.90;;;;;;4981624;28;20503;-45
2021/03/27 14:29:57;;;;;;;1.77;1.30;;;8.10;99.90;;;;;;4981979;28;20462;-51
2021/03/27 14:32:37;;;;;;;1.20;1.00;;;8.00;99.90;;;;;;4982060;29;20556;-46
2021/03/27 14:35:45;;;;;;;2.90;1.47;;;8.00;99.90;;;;;;4981860;28;20854;-47
2021/03/27 14:38:27;;;;;;;2.90;1.37;;;7.90;99.90;;;;;;4981233;29;20478;-49
2021/03/27 14:41:04;;;;;;;1.90;1.43;;;7.80;99.90;;;;;;4981096;29;20870;-48
2021/03/27 14:43:43;;;;;;;1.77;1.10;;;7.60;99.90;;;;;;4980932;29;20443;-49
2021/03/27 14:46:44;;;;;;;2.80;1.40;;;7.60;99.90;;;;;;4981391;28;20569;-47
2021/03/27 14:49:35;;;;;;;2.93;1.40;;;7.50;99.90;;;;;;4977885;28;20432;-47
2021/03/27 14:52:09;;;;;;;2.77;1.10;;;7.50;99.90;;;;;;4981425;28;20519;-45
2021/03/27 14:54:45;;;;;;;1.30;0.90;;;7.40;99.90;;;;;;4980913;29;20486;-48
2021/03/27 14:57:20;;;;;;;1.70;1.10;;;7.50;99.90;;;;;;4980774;29;20448;-50
2021/03/27 14:59:55;;;;;;;2.90;1.10;;;7.60;99.90;;;;;;4980753;28;20420;-52
2021/03/27 15:02:35;;;;;;;1.33;0.93;;;7.80;99.90;;;;;;4980915;29;20431;-49
2021/03/27 15:05:19;;;;;;;2.93;1.07;;;8.10;99.90;;;;;;4980447;29;20448;-48
2021/03/27 15:08:00;;;;;;;2.70;1.23;;;8.40;99.90;;;;;;4980628;29;20487;-53
2021/03/27 15:10:45;;;;;;;3.77;1.23;;;8.60;99.90;;;;;;4980224;29;20416;-47
2021/03/27 15:13:53;;;;;;;1.70;1.57;;;8.60;99.90;;;;;;4976851;29;21007;-47
2021/03/27 15:16:41;;;;;;;4.10;1.53;;;8.60;99.90;;;;;;4949687;28;20775;-45
2021/03/27 15:19:32;;;;;;;2.10;1.40;;;8.60;99.90;;;;;;4980258;29;20984;-44
2021/03/27 15:22:15;;;;;;;2.40;1.53;;;8.60;99.90;;;;;;4957735;29;20445;-48
2021/03/27 15:27:54;;;;;;;2.17;1.60;;;8.40;99.90;;;;;;4968910;28;20435;-45
2021/03/27 15:30:29;;;;;;;4.40;1.90;;;8.30;99.90;;;;;;4963661;29;20523;-44
2021/03/27 15:33:12;;;;;;;3.27;1.90;;;8.30;99.90;;;;;;4980864;28;20534;-45
2021/03/27 15:35:54;;;;;;;3.83;1.63;;;8.30;99.90;;;;;;4980556;28;20947;-45
2021/03/27 15:38:30;;;;;;;4.97;2.73;;;8.50;99.90;;;;;;4971475;29;20448;-43
2021/03/27 15:41:02;;;;;;;4.60;1.90;;;8.60;99.90;;;;;;4979472;28;20445;-44
2021/03/27 15:43:43;;;;;;;4.90;2.03;;;8.60;99.90;;;;;;4973994;28;20507;-55
2021/03/27 15:46:17;;;;;;;2.30;1.73;;;8.60;99.90;;;;;;4974276;29;20445;-49
2021/03/27 15:49:04;;;;;;;4.10;1.60;;;8.60;99.90;;;;;;4967108;29;20503;-47
2021/03/27 15:52:01;;;;;;;5.00;2.13;;;8.70;99.90;;;;;;4972510;29;20475;-50
2021/03/27 15:54:40;;;;;;;6.60;2.20;;;8.70;99.90;;;;;;4989382;28;20546;-48
2021/03/27 15:57:45;;;;;;;2.47;1.70;;;8.60;99.90;;;;;;4960826;28;20457;-52
2021/03/27 16:00:32;;;;;;;5.87;2.87;;;8.60;99.90;;;;;;4922799;29;20456;-51
2021/03/27 16:03:28;;;;;;;5.67;3.07;;;8.50;99.90;;;;;;4960504;28;20524;-49
2021/03/27 16:06:03;;;;;;;3.60;2.33;;;8.50;99.90;;;;;;4960390;29;20441;-47
2021/03/27 16:08:39;;;;;;;6.43;2.20;;;8.60;99.90;;;;;;4960582;29;20436;-46
2021/03/27 16:11:33;;;;;;;5.07;2.07;;;8.50;99.90;;;;;;4960483;29;20484;-47
2021/03/27 16:14:10;;;;;;;9.67;1.60;;;8.60;99.90;;;;;;4967397;29;20467;-49
2021/03/27 16:17:11;;;;;;;5.73;2.13;;;8.70;99.90;;;;;;4979622;29;20502;-52
2021/03/27 16:19:53;;;;;;;2.50;1.60;;;8.70;99.90;;;;;;4994243;28;20471;-51
2021/03/27 16:22:33;;;;;;;4.23;2.23;;;8.70;99.90;;;;;;4993484;28;20885;-49
2021/03/27 16:25:42;;;;;;;2.97;2.10;;;8.60;99.90;;;;;;4997360;28;20847;-51
2021/03/27 16:28:21;;;;;;;3.43;1.80;;;8.60;99.90;;;;;;4998682;28;20957;-47
2021/03/27 16:31:08;;;;;;;5.63;1.90;;;8.60;99.90;;;;;;4999033;28;20501;-48
2021/03/27 16:33:45;;;;;;;2.33;1.80;;;8.40;99.90;;;;;;4998900;28;20458;-50